Deary, Idaho
Current Conditions -  °F | °C
As of 11:53 PM on Monday 20 Oct 2014 (Local Time) from KPUW Reporting Station
Overcast Overcast  
Wind Chill: 47°   Ceiling: 5000
Heat Index: 49°   Visibility: 10mi
Dew Point: 45°   Wind: 5mph
Humidity: 86%   Direction: 30°NNE
Pressure: 29.87"   Gusts: NA
Location:  46.8°N, 116.56°W
Report Text: KPUW 210653Z AUTO 03004KT 10SM FEW005 OVC050 09/07 A2987 RMK AO2 SLP109 T00940072
Loading
Personal Weather Stations






























Interactive Weather Map
Tropical Storm Tracking
New forecast layout! Learn more

10-Day Weather Forecast

Advertisements
Track Severe Weather on mobile